createdAt,value
2022-08-14T00:02:27.824Z,101216.00
2022-08-14T00:04:59.601Z,101220.00
2022-08-14T00:07:29.826Z,101216.00
2022-08-14T00:10:50.356Z,101220.00
2022-08-14T00:12:56.899Z,101218.00
2022-08-14T00:15:43.287Z,101214.00
2022-08-14T00:18:30.562Z,101203.00
2022-08-14T00:21:11.353Z,101200.00
2022-08-14T00:23:43.129Z,101196.00
2022-08-14T00:26:23.041Z,101196.00
2022-08-14T00:28:52.336Z,101188.00
2022-08-14T00:31:35.330Z,101192.00
2022-08-14T00:34:36.171Z,101183.00
2022-08-14T00:36:59.282Z,101186.00
2022-08-14T00:39:28.993Z,101173.00
2022-08-14T00:41:58.511Z,101178.00
2022-08-14T00:44:32.556Z,101185.00
2022-08-14T00:47:03.480Z,101189.00
2022-08-14T00:49:38.232Z,101181.00
2022-08-14T00:52:14.193Z,101182.00
2022-08-14T00:54:58.174Z,101176.00
2022-08-14T00:57:28.976Z,101174.00
2022-08-14T00:59:57.330Z,101175.00
2022-08-14T01:02:28.238Z,101168.00
2022-08-14T01:04:58.961Z,101166.00
2022-08-14T01:07:29.842Z,101163.00
2022-08-14T01:10:17.818Z,101154.00
2022-08-14T01:12:48.721Z,101141.00
2022-08-14T01:15:21.406Z,101162.00
2022-08-14T01:18:17.339Z,101162.00
2022-08-14T01:21:03.339Z,101152.00
2022-08-14T01:23:41.784Z,101141.00
2022-08-14T01:26:34.460Z,101133.00
2022-08-14T01:29:06.919Z,101120.00
2022-08-14T01:31:42.735Z,101114.00
2022-08-14T01:35:21.073Z,101129.00
2022-08-14T01:36:59.885Z,101136.00
2022-08-14T01:39:32.280Z,101145.00
2022-08-14T01:42:01.275Z,101119.00
2022-08-14T01:44:33.748Z,101142.00
2022-08-14T01:47:12.374Z,101134.00
2022-08-14T01:49:59.557Z,101128.00
2022-08-14T01:52:58.664Z,101123.00
2022-08-14T01:55:30.473Z,101119.00
2022-08-14T01:58:18.199Z,101112.00
2022-08-14T02:00:48.110Z,101113.00
2022-08-14T02:03:17.242Z,101100.00
2022-08-14T02:05:46.041Z,101108.00
2022-08-14T02:08:16.083Z,101091.00
2022-08-14T02:11:15.896Z,101110.00
2022-08-14T02:13:50.735Z,101102.00
2022-08-14T02:16:26.292Z,101109.00
2022-08-14T02:18:57.544Z,101095.00
2022-08-14T02:21:31.762Z,101088.00
2022-08-14T02:24:09.372Z,101086.00
2022-08-14T02:28:24.970Z,101083.00
2022-08-14T02:30:00.604Z,101080.00
2022-08-14T02:32:36.953Z,101072.00
2022-08-14T02:35:18.880Z,101064.00
2022-08-14T02:37:49.541Z,101063.00
2022-08-14T02:40:19.256Z,101066.00
2022-08-14T02:42:54.727Z,101070.00
2022-08-14T02:45:38.604Z,101063.00
2022-08-14T02:49:01.971Z,101058.00
2022-08-14T02:51:07.165Z,101066.00
2022-08-14T02:53:42.475Z,101067.00
2022-08-14T02:56:30.370Z,101065.00
2022-08-14T02:59:07.154Z,101060.00
2022-08-14T03:01:43.339Z,101063.00
2022-08-14T03:04:13.280Z,101058.00
2022-08-14T03:06:57.130Z,101055.00
2022-08-14T03:10:25.274Z,101049.00
2022-08-14T03:12:17.925Z,101038.00
2022-08-14T03:15:03.675Z,101034.00
2022-08-14T03:17:41.133Z,101041.00
2022-08-14T03:20:24.159Z,101040.00
2022-08-14T03:22:52.630Z,101042.00
2022-08-14T03:25:23.100Z,101041.00
2022-08-14T03:27:58.259Z,101021.00
2022-08-14T03:30:38.870Z,101030.00
2022-08-14T03:33:10.962Z,101039.00
2022-08-14T03:36:00.384Z,101042.00
2022-08-14T03:39:11.841Z,101030.00
2022-08-14T03:41:23.034Z,101022.00
2022-08-14T03:43:57.012Z,101034.00
2022-08-14T03:46:39.113Z,101029.00
2022-08-14T03:49:28.283Z,101034.00
2022-08-14T03:51:58.361Z,101029.00
2022-08-14T03:54:29.760Z,101025.00
2022-08-14T03:57:02.656Z,101039.00
2022-08-14T03:59:32.218Z,101026.00
2022-08-14T04:02:04.483Z,101018.00
2022-08-14T04:04:34.164Z,101029.00
2022-08-14T04:07:03.320Z,101019.00
2022-08-14T04:09:31.594Z,101009.00
2022-08-14T04:11:59.929Z,101011.00
2022-08-14T04:14:30.119Z,101009.00
2022-08-14T04:16:58.601Z,101026.00
2022-08-14T04:19:33.018Z,100973.00
2022-08-14T04:22:06.333Z,100999.00
2022-08-14T04:24:38.366Z,101024.00
2022-08-14T04:27:09.586Z,101013.00
2022-08-14T04:29:39.417Z,101013.00
2022-08-14T04:32:57.335Z,101023.00
2022-08-14T04:35:07.560Z,101015.00
2022-08-14T04:37:56.561Z,100963.00
2022-08-14T04:40:42.983Z,100990.00
2022-08-14T04:43:38.322Z,101001.00
2022-08-14T04:46:57.136Z,100989.00
2022-08-14T04:49:00.430Z,101000.00
2022-08-14T04:51:46.279Z,101012.00
2022-08-14T04:54:14.956Z,101011.00
2022-08-14T04:56:45.754Z,101022.00
2022-08-14T04:59:14.649Z,101023.00
2022-08-14T05:01:48.955Z,101020.00
2022-08-14T05:04:20.817Z,101019.00
2022-08-14T05:06:54.241Z,101018.00
2022-08-14T05:09:24.671Z,101011.00
2022-08-14T05:13:08.325Z,101026.00
2022-08-14T05:14:53.448Z,101024.00
2022-08-14T05:17:31.839Z,101010.00
2022-08-14T05:21:54.582Z,101019.00
2022-08-14T05:23:03.582Z,101025.00
2022-08-14T05:25:33.552Z,101021.00
2022-08-14T05:28:12.478Z,100999.00
2022-08-14T05:30:44.563Z,101020.00
2022-08-14T05:33:14.000Z,101019.00
2022-08-14T05:35:44.245Z,101019.00
2022-08-14T05:38:30.686Z,101008.00
2022-08-14T05:41:00.726Z,101013.00
2022-08-14T05:43:40.739Z,101001.00
2022-08-14T05:46:15.202Z,101006.00
2022-08-14T05:48:43.976Z,100998.00
2022-08-14T05:51:13.604Z,100992.00
2022-08-14T05:53:43.922Z,100984.00
2022-08-14T05:56:29.052Z,100991.00
2022-08-14T05:58:57.394Z,100992.00
2022-08-14T06:01:31.408Z,100989.00
2022-08-14T06:04:00.101Z,100982.00
2022-08-14T06:06:28.466Z,100981.00
2022-08-14T06:08:58.770Z,100978.00
2022-08-14T06:11:30.834Z,100980.00
2022-08-14T06:13:59.967Z,100980.00
2022-08-14T06:16:28.143Z,100973.00
2022-08-14T06:18:59.512Z,100967.00
2022-08-14T06:21:27.818Z,100958.00
2022-08-14T06:23:59.497Z,100963.00
2022-08-14T06:26:30.270Z,100963.00
2022-08-14T06:28:59.884Z,100958.00
2022-08-14T06:31:28.088Z,100950.00
2022-08-14T06:35:11.764Z,100954.00
2022-08-14T06:36:44.606Z,100957.00
2022-08-14T06:39:14.235Z,100958.00
2022-08-14T06:41:56.800Z,100964.00
2022-08-14T06:44:32.553Z,100964.00
2022-08-14T06:47:02.870Z,100956.00
2022-08-14T06:49:34.323Z,100957.00
2022-08-14T06:52:15.946Z,100954.00
2022-08-14T06:54:46.769Z,100957.00
2022-08-14T06:57:14.947Z,100969.00
2022-08-14T06:59:43.322Z,100964.00
2022-08-14T07:02:29.868Z,100956.00
2022-08-14T07:05:20.999Z,100964.00
2022-08-14T07:07:53.070Z,100957.00
2022-08-14T07:10:25.422Z,100963.00
2022-08-14T07:13:03.916Z,100959.00
2022-08-14T07:15:39.448Z,100962.00
2022-08-14T07:18:09.580Z,100964.00
2022-08-14T07:20:38.984Z,100977.00
2022-08-14T07:23:19.757Z,100975.00
2022-08-14T07:25:51.893Z,100968.00
2022-08-14T07:28:24.475Z,100964.00
2022-08-14T07:30:56.272Z,100970.00
2022-08-14T07:33:29.466Z,100955.00
2022-08-14T07:36:00.938Z,100976.00
2022-08-14T07:38:37.558Z,100971.00
2022-08-14T07:41:14.233Z,100966.00
2022-08-14T07:43:47.508Z,100965.00
2022-08-14T07:46:29.538Z,100962.00
2022-08-14T07:48:59.566Z,100962.00
2022-08-14T07:51:34.067Z,100954.00
2022-08-14T07:54:04.141Z,100948.00
2022-08-14T07:56:44.101Z,100948.00
2022-08-14T07:59:18.695Z,100950.00
2022-08-14T08:01:48.124Z,100941.00
2022-08-14T08:04:26.943Z,100941.00
2022-08-14T08:06:56.078Z,100942.00
2022-08-14T08:09:32.387Z,100949.00
2022-08-14T08:12:09.317Z,100945.00
2022-08-14T08:14:56.928Z,100945.00
2022-08-14T08:17:34.686Z,100930.00
2022-08-14T08:20:09.285Z,100942.00
2022-08-14T08:22:40.793Z,100926.00
2022-08-14T08:25:13.937Z,100940.00
2022-08-14T08:27:58.655Z,100927.00
2022-08-14T08:30:27.827Z,100923.00
2022-08-14T08:33:01.198Z,100936.00
2022-08-14T08:35:46.924Z,100926.00
2022-08-14T08:39:18.226Z,100930.00
2022-08-14T08:41:11.196Z,100925.00
2022-08-14T08:43:46.192Z,100907.00
2022-08-14T08:46:23.906Z,100911.00
2022-08-14T08:51:33.244Z,100901.00
2022-08-14T08:54:05.346Z,100896.00
2022-08-14T08:56:40.485Z,100898.00
2022-08-14T08:59:22.253Z,100898.00
2022-08-14T09:01:58.783Z,100898.00
2022-08-14T09:04:29.886Z,100892.00
2022-08-14T09:07:09.618Z,100885.00
2022-08-14T09:09:53.714Z,100882.00
2022-08-14T09:12:22.930Z,100876.00
2022-08-14T09:14:53.304Z,100874.00
2022-08-14T09:17:25.668Z,100872.00
2022-08-14T09:19:55.402Z,100860.00
2022-08-14T09:22:35.855Z,100871.00
2022-08-14T09:25:07.133Z,100866.00
2022-08-14T09:27:37.637Z,100871.00
2022-08-14T09:30:30.605Z,100872.00
2022-08-14T09:33:22.507Z,100881.00
2022-08-14T09:36:05.044Z,100883.00
2022-08-14T09:38:47.565Z,100877.00
2022-08-14T09:42:17.815Z,100888.00
2022-08-14T09:44:45.757Z,100861.00
2022-08-14T09:47:16.899Z,100862.00
2022-08-14T09:49:52.973Z,100855.00
2022-08-14T09:52:33.297Z,100855.00
2022-08-14T09:55:02.891Z,100855.00
2022-08-14T09:57:32.527Z,100852.00
2022-08-14T10:00:30.188Z,100844.00
2022-08-14T10:03:05.919Z,100847.00
2022-08-14T10:05:39.122Z,100846.00
2022-08-14T10:08:26.541Z,100849.00
2022-08-14T10:11:02.879Z,100837.00
2022-08-14T10:13:37.142Z,100837.00
2022-08-14T10:16:25.860Z,100834.00
2022-08-14T10:19:09.519Z,100832.00
2022-08-14T10:21:58.648Z,100822.00
2022-08-14T10:24:37.280Z,100818.00
2022-08-14T10:27:17.013Z,100808.00
2022-08-14T10:29:50.916Z,100802.00
2022-08-14T10:32:36.681Z,100797.00
2022-08-14T10:35:15.130Z,100794.00
2022-08-14T10:37:48.130Z,100800.00
2022-08-14T10:40:38.743Z,100782.00
2022-08-14T10:43:23.210Z,100779.00
2022-08-14T10:46:03.767Z,100769.00
2022-08-14T10:48:58.461Z,100767.00
2022-08-14T10:51:34.032Z,100765.00
2022-08-14T10:54:26.060Z,100769.00
2022-08-14T10:57:20.221Z,100776.00
2022-08-14T10:59:52.745Z,100769.00
2022-08-14T11:02:44.823Z,100755.00
2022-08-14T11:05:20.122Z,100756.00
2022-08-14T11:08:01.850Z,100747.00
2022-08-14T11:10:45.163Z,100753.00
2022-08-14T11:13:21.233Z,100744.00
2022-08-14T11:15:53.472Z,100745.00
2022-08-14T11:18:32.111Z,100742.00
2022-08-14T11:21:08.407Z,100741.00
2022-08-14T11:23:41.161Z,100735.00
2022-08-14T11:26:13.674Z,100741.00
2022-08-14T11:28:47.356Z,100745.00
2022-08-14T11:31:20.266Z,100742.00
2022-08-14T11:33:57.352Z,100740.00
2022-08-14T11:36:57.022Z,100731.00
2022-08-14T11:39:33.360Z,100733.00
2022-08-14T11:42:55.475Z,100723.00
2022-08-14T11:44:56.623Z,100721.00
2022-08-14T11:47:25.294Z,100726.00
2022-08-14T11:49:54.832Z,100720.00
2022-08-14T11:52:23.740Z,100719.00
2022-08-14T11:55:00.499Z,100717.00
2022-08-14T11:57:30.426Z,100712.00
2022-08-14T12:00:04.698Z,100724.00
2022-08-14T12:03:02.687Z,100715.00
2022-08-14T12:05:33.901Z,100716.00
2022-08-14T12:08:11.939Z,100709.00
2022-08-14T12:10:44.950Z,100700.00
2022-08-14T12:13:18.927Z,100696.00
2022-08-14T12:15:59.783Z,100683.00
2022-08-14T12:18:36.468Z,100682.00
2022-08-14T12:21:19.225Z,100688.00
2022-08-14T12:23:51.036Z,100693.00
2022-08-14T12:26:39.651Z,100683.00
2022-08-14T12:29:13.206Z,100682.00
2022-08-14T12:31:44.868Z,100680.00
2022-08-14T12:34:20.070Z,100683.00
2022-08-14T12:36:49.023Z,100685.00
2022-08-14T12:39:23.887Z,100684.00
2022-08-14T12:42:01.476Z,100669.00
2022-08-14T12:44:34.985Z,100673.00
2022-08-14T12:47:09.604Z,100659.00
2022-08-14T12:49:52.663Z,100654.00
2022-08-14T12:52:41.749Z,100642.00
2022-08-14T12:55:20.897Z,100644.00
2022-08-14T12:57:53.725Z,100650.00
2022-08-14T13:00:24.670Z,100657.00
2022-08-14T13:02:56.417Z,100655.00
2022-08-14T13:05:29.951Z,100653.00
2022-08-14T13:07:59.491Z,100650.00
2022-08-14T13:10:51.198Z,100653.00
2022-08-14T13:13:21.062Z,100651.00
2022-08-14T13:15:56.268Z,100631.00
2022-08-14T13:18:28.188Z,100641.00
2022-08-14T13:21:01.283Z,100639.00
2022-08-14T13:23:36.155Z,100636.00
2022-08-14T13:26:04.993Z,100620.00
2022-08-14T13:29:00.559Z,100623.00
2022-08-14T13:31:30.104Z,100618.00
2022-08-14T13:34:00.060Z,100618.00
2022-08-14T13:36:51.711Z,100616.00
2022-08-14T13:39:17.547Z,100602.00
2022-08-14T13:41:46.913Z,100598.00
2022-08-14T13:44:22.050Z,100599.00
2022-08-14T13:46:52.793Z,100601.00
2022-08-14T13:49:20.966Z,100587.00
2022-08-14T13:51:58.819Z,100576.00
2022-08-14T13:54:32.699Z,100574.00
2022-08-14T13:57:03.733Z,100565.00
2022-08-14T13:59:37.372Z,100571.00
2022-08-14T14:02:08.620Z,100554.00
2022-08-14T14:04:42.651Z,100556.00
2022-08-14T14:07:17.371Z,100550.00
2022-08-14T14:09:51.016Z,100548.00
2022-08-14T14:12:38.011Z,100545.00
2022-08-14T14:15:13.714Z,100533.00
2022-08-14T14:17:44.172Z,100529.00
2022-08-14T14:20:35.455Z,100530.00
2022-08-14T14:23:11.531Z,100539.00
2022-08-14T14:25:48.090Z,100540.00
2022-08-14T14:28:23.860Z,100532.00
2022-08-14T14:30:57.471Z,100523.00
2022-08-14T14:33:49.306Z,100529.00
2022-08-14T14:36:21.946Z,100519.00
2022-08-14T14:38:54.157Z,100514.00
2022-08-14T14:41:25.725Z,100516.00
2022-08-14T14:43:57.533Z,100515.00
2022-08-14T14:46:36.048Z,100509.00
2022-08-14T14:49:11.198Z,100505.00
2022-08-14T14:51:43.542Z,100505.00
2022-08-14T14:54:13.176Z,100500.00
2022-08-14T14:56:47.613Z,100508.00
2022-08-14T14:59:20.111Z,100506.00
2022-08-14T15:01:52.380Z,100499.00
2022-08-14T15:04:21.295Z,100499.00
2022-08-14T15:06:50.198Z,100500.00
2022-08-14T15:09:23.702Z,100503.00
2022-08-14T15:11:52.182Z,100497.00
2022-08-14T15:14:54.729Z,100505.00
2022-08-14T15:17:10.868Z,100502.00
2022-08-14T15:19:39.606Z,100502.00
2022-08-14T15:22:10.690Z,100496.00
2022-08-14T15:24:39.904Z,100497.00
2022-08-14T15:27:09.246Z,100492.00
2022-08-14T15:29:43.040Z,100488.00
2022-08-14T15:32:13.913Z,100486.00
2022-08-14T15:34:51.825Z,100484.00
2022-08-14T15:37:22.727Z,100487.00
2022-08-14T15:39:52.587Z,100487.00
2022-08-14T15:42:23.007Z,100488.00
2022-08-14T15:44:58.512Z,100487.00
2022-08-14T15:47:32.607Z,100487.00
2022-08-14T15:50:04.725Z,100483.00
2022-08-14T15:52:37.045Z,100474.00
2022-08-14T15:55:13.184Z,100472.00
2022-08-14T15:58:02.343Z,100476.00
2022-08-14T16:00:50.195Z,100473.00
2022-08-14T16:03:24.983Z,100476.00
2022-08-14T16:06:03.365Z,100470.00
2022-08-14T16:08:31.549Z,100462.00
2022-08-14T16:11:01.450Z,100463.00
2022-08-14T16:13:42.185Z,100466.00
2022-08-14T16:16:34.769Z,100462.00
2022-08-14T16:19:11.078Z,100460.00
2022-08-14T16:22:01.845Z,100467.00
2022-08-14T16:24:34.693Z,100463.00
2022-08-14T16:27:05.982Z,100455.00
2022-08-14T16:29:39.002Z,100453.00
2022-08-14T16:32:33.137Z,100442.00
2022-08-14T16:34:59.008Z,100453.00
2022-08-14T16:37:30.949Z,100448.00
2022-08-14T16:40:03.293Z,100436.00
2022-08-14T16:42:38.909Z,100433.00
2022-08-14T16:45:27.336Z,100442.00
2022-08-14T16:47:55.662Z,100434.00
2022-08-14T16:50:40.551Z,100428.00
2022-08-14T16:53:17.248Z,100425.00
2022-08-14T16:55:53.440Z,100421.00
2022-08-14T16:58:30.298Z,100419.00
2022-08-14T17:01:22.962Z,100419.00
2022-08-14T17:04:00.670Z,100407.00
2022-08-14T17:06:55.694Z,100412.00
2022-08-14T17:09:44.625Z,100407.00
2022-08-14T17:12:29.108Z,100410.00
2022-08-14T17:15:10.029Z,100399.00
2022-08-14T17:17:57.856Z,100400.00
2022-08-14T17:20:53.535Z,100402.00
2022-08-14T17:23:17.794Z,100396.00
2022-08-14T17:25:50.890Z,100399.00
2022-08-14T17:28:51.416Z,100398.00
2022-08-14T17:31:12.098Z,100397.00
2022-08-14T17:36:31.321Z,100394.00
2022-08-14T17:39:08.682Z,100391.00
2022-08-14T17:41:44.220Z,100383.00
2022-08-14T17:44:34.388Z,100393.00
2022-08-14T17:47:18.403Z,100402.00
2022-08-14T17:49:52.692Z,100399.00
2022-08-14T17:52:36.548Z,100400.00
2022-08-14T17:56:01.110Z,100401.00
2022-08-14T17:58:20.314Z,100389.00
2022-08-14T18:00:52.595Z,100400.00
2022-08-14T18:03:45.804Z,100395.00
2022-08-14T18:06:38.600Z,100396.00
2022-08-14T18:08:59.779Z,100403.00
2022-08-14T18:11:45.570Z,100401.00
2022-08-14T18:14:32.527Z,100396.00
2022-08-14T18:17:05.877Z,100402.00
2022-08-14T18:19:37.698Z,100397.00
2022-08-14T18:22:31.491Z,100393.00
2022-08-14T18:25:02.363Z,100397.00
2022-08-14T18:27:38.842Z,100395.00
2022-08-14T18:30:33.163Z,100386.00
2022-08-14T18:33:15.668Z,100396.00
2022-08-14T18:35:59.090Z,100393.00
2022-08-14T18:38:45.676Z,100384.00
2022-08-14T18:41:36.638Z,100397.00
2022-08-14T18:44:10.827Z,100398.00
2022-08-14T18:47:22.279Z,100393.00
2022-08-14T18:50:26.199Z,100397.00
2022-08-14T18:53:05.762Z,100389.00
2022-08-14T18:55:54.480Z,100393.00
2022-08-14T18:58:34.374Z,100389.00
2022-08-14T19:01:06.217Z,100396.00
2022-08-14T19:03:57.544Z,100392.00
2022-08-14T19:06:56.336Z,100395.00
2022-08-14T19:09:56.373Z,100399.00
2022-08-14T19:13:13.210Z,100403.00
2022-08-14T19:15:56.153Z,100401.00
2022-08-14T19:18:30.190Z,100396.00
2022-08-14T19:21:01.398Z,100399.00
2022-08-14T19:23:42.867Z,100391.00
2022-08-14T19:26:36.596Z,100385.00
2022-08-14T19:29:37.737Z,100390.00
2022-08-14T19:32:36.583Z,100396.00
2022-08-14T19:35:48.643Z,100388.00
2022-08-14T19:38:52.113Z,100397.00
2022-08-14T19:41:25.035Z,100394.00
2022-08-14T19:44:10.895Z,100377.00
2022-08-14T19:47:01.018Z,100390.00
2022-08-14T19:50:08.601Z,100369.00
2022-08-14T19:52:29.644Z,100394.00
2022-08-14T19:54:59.075Z,100387.00
2022-08-14T19:57:29.475Z,100388.00
2022-08-14T20:00:04.470Z,100385.00
2022-08-14T20:02:37.621Z,100383.00
2022-08-14T20:05:12.319Z,100378.00
2022-08-14T20:07:59.136Z,100383.00
2022-08-14T20:11:06.478Z,100378.00
2022-08-14T20:13:31.987Z,100379.00
2022-08-14T20:16:12.257Z,100376.00
2022-08-14T20:18:51.619Z,100373.00
2022-08-14T20:21:21.677Z,100370.00
2022-08-14T20:23:51.565Z,100373.00
2022-08-14T20:26:31.246Z,100365.00
2022-08-14T20:29:04.396Z,100374.00
2022-08-14T20:31:36.920Z,100370.00
2022-08-14T20:34:24.466Z,100375.00
2022-08-14T20:37:04.652Z,100368.00
2022-08-14T20:39:45.250Z,100375.00
2022-08-14T20:42:43.551Z,100372.00
2022-08-14T20:45:23.759Z,100369.00
2022-08-14T20:48:01.033Z,100364.00
2022-08-14T20:50:31.837Z,100365.00
2022-08-14T20:53:06.111Z,100368.00
2022-08-14T20:55:41.466Z,100362.00
2022-08-14T20:58:42.013Z,100361.00
2022-08-14T21:01:36.038Z,100363.00
2022-08-14T21:04:22.369Z,100361.00
2022-08-14T21:07:25.552Z,100358.00
2022-08-14T21:10:06.328Z,100361.00
2022-08-14T21:12:35.729Z,100364.00
2022-08-14T21:15:10.238Z,100355.00
2022-08-14T21:17:43.189Z,100369.00
2022-08-14T21:20:25.753Z,100348.00
2022-08-14T21:23:00.705Z,100357.00
2022-08-14T21:25:31.688Z,100357.00
2022-08-14T21:28:04.903Z,100364.00
2022-08-14T21:30:51.828Z,100372.00
2022-08-14T21:33:22.613Z,100367.00
2022-08-14T21:35:55.000Z,100361.00
2022-08-14T21:38:33.478Z,100368.00
2022-08-14T21:41:41.310Z,100363.00
2022-08-14T21:44:05.079Z,100339.00
2022-08-14T21:46:49.835Z,100354.00
2022-08-14T21:49:22.795Z,100354.00
2022-08-14T21:52:00.001Z,100352.00
2022-08-14T21:54:49.405Z,100350.00
2022-08-14T21:58:46.357Z,100344.00
2022-08-14T22:00:31.600Z,100342.00
2022-08-14T22:03:02.591Z,100343.00
2022-08-14T22:05:32.361Z,100332.00
2022-08-14T22:08:02.663Z,100335.00
2022-08-14T22:10:32.662Z,100323.00
2022-08-14T22:13:01.898Z,100326.00
2022-08-14T22:15:31.389Z,100321.00
2022-08-14T22:18:00.355Z,100323.00
2022-08-14T22:20:33.558Z,100321.00
2022-08-14T22:23:08.564Z,100315.00
2022-08-14T22:25:41.554Z,100318.00
2022-08-14T22:28:15.553Z,100306.00
2022-08-14T22:30:45.167Z,100307.00
2022-08-14T22:33:15.608Z,100310.00
2022-08-14T22:35:46.566Z,100312.00
2022-08-14T22:38:35.588Z,100313.00
2022-08-14T22:41:29.493Z,100310.00
2022-08-14T22:44:01.775Z,100305.00
2022-08-14T22:46:30.021Z,100316.00
2022-08-14T22:48:58.679Z,100309.00
2022-08-14T22:51:28.612Z,100311.00
2022-08-14T22:53:58.211Z,100311.00
2022-08-14T22:56:30.643Z,100310.00
2022-08-14T22:59:02.135Z,100309.00
2022-08-14T23:01:55.784Z,100309.00
2022-08-14T23:04:35.272Z,100297.00
2022-08-14T23:07:22.165Z,100304.00
2022-08-14T23:09:56.019Z,100302.00
2022-08-14T23:12:29.453Z,100295.00
2022-08-14T23:15:00.217Z,100302.00
2022-08-14T23:17:39.119Z,100303.00
2022-08-14T23:20:18.947Z,100302.00
2022-08-14T23:22:52.685Z,100304.00
2022-08-14T23:25:56.973Z,100301.00
2022-08-14T23:28:34.964Z,100288.00
2022-08-14T23:31:09.825Z,100287.00
2022-08-14T23:33:42.090Z,100292.00
2022-08-14T23:36:31.475Z,100288.00
2022-08-14T23:39:10.548Z,100291.00
2022-08-14T23:41:47.145Z,100281.00
2022-08-14T23:44:23.597Z,100273.00
2022-08-14T23:46:56.873Z,100251.00
2022-08-14T23:49:57.054Z,100267.00
2022-08-14T23:52:51.234Z,100259.00
2022-08-14T23:55:11.556Z,100258.00
2022-08-14T23:57:44.067Z,100260.00
